Flight Track Log - Related Links

Times and Time Zones

All times are in EDT time to prevent confusion due to time zone crossing. See the N920AC flight status page for this flight to view local times or setup timezone preferences in your user account.

Time Position Orientation Groundspeed Altitude Reporting Facility
EDT Latitude Longitude Course Direction KTS MPH feet Rate Location/Type
Wed 11:56:31 PM 27.7833 -82.6000 41° Northeast 63 72 1,100  Level Tampa TRACON
Wed 11:57:25 PM 27.8000 -82.5833 41° Northeast 105 121 1,100 105 Level Tampa TRACON
Wed 11:58:25 PM 27.7833 -82.5667 138° Southeast 102 117 1,300 333 Climbing Tampa TRACON
Wed 11:59:31 PM 27.7667 -82.5667 180° South 81 93 1,800 476 Climbing Tampa TRACON
Thu 12:00:31 AM 27.7500 -82.5667 180° South 80 92 2,300 446 Climbing Tampa TRACON
Thu 12:01:32 AM 27.7167 -82.5667 180° South 82 94 2,700 446 Climbing Tampa TRACON
Thu 12:02:32 AM 27.7000 -82.5667 180° South 86 99 3,200 450 Climbing Tampa TRACON
Thu 12:03:32 AM 27.6667 -82.5667 180° South 87 100 3,600 350 Climbing Tampa TRACON
Thu 12:04:32 AM 27.6500 -82.5667 180° South 85 98 3,900 350 Climbing Tampa TRACON
Thu 12:05:32 AM 27.6167 -82.5667 180° South 86 99 4,300 350 Climbing Tampa TRACON
Thu 12:06:32 AM 27.6000 -82.5500 138° Southeast 87 100 4,600 350 Climbing Tampa TRACON
Thu 12:07:32 AM 27.5833 -82.5500 180° South 84 97 5,000 200 Climbing Tampa TRACON
Thu 12:08:32 AM 27.5500 -82.5333 156° South 102 117 5,000 50 Level Tampa TRACON
Thu 12:09:32 AM 27.5333 -82.5167 138° Southeast 108 124 5,100  Climbing Tampa TRACON
Thu 12:10:32 AM 27.5000 -82.5167 180° South 104 120 5,000 -30 Descending Tampa TRACON
Thu 12:12:52 AM 27.4389 -82.4956 163° South 115 132 5,000  Level Miami Center
Thu 12:13:54 AM 27.4097 -82.4964 181° South 108 124 5,000  Level Miami Center
Thu 12:14:53 AM 27.3831 -82.4858 161° South 103 119 5,000  Level Miami Center
Thu 12:15:51 AM 27.3561 -82.4775 165° South 103 119 5,000  Level Miami Center
Thu 12:16:51 AM 27.3294 -82.4669 161° South 103 119 5,000  Level Miami Center
Thu 12:17:54 AM 27.3028 -82.4561 160° South 103 119 5,000 50 Level Miami Center
Thu 12:18:51 AM 27.2781 -82.4456 159° South 103 119 5,100  Climbing Miami Center
Thu 12:19:51 AM 27.2514 -82.4372 164° South 103 119 5,000 -50 Descending Miami Center
Thu 12:20:52 AM 27.2247 -82.4244 157° South 103 119 5,000  Level Miami Center
Thu 12:21:52 AM 27.1978 -82.4161 165° South 103 119 5,000  Level Miami Center
Thu 12:22:52 AM 27.1711 -82.4078 164° South 103 119 5,000 -50 Level Miami Center
Thu 12:23:53 AM 27.1422 -82.3947 158° South 103 119 4,900  Descending Miami Center
Thu 12:24:54 AM 27.1156 -82.3842 161° South 103 119 5,000 50 Climbing Miami Center
Thu 12:25:54 AM 27.0886 -82.3783 169° South 103 119 5,000  Level Miami Center
Thu 12:26:52 AM 27.0597 -82.3722 169° South 103 119 5,000  Level Miami Center
Thu 12:27:52 AM 27.0328 -82.3661 169° South 103 119 5,000  Level Miami Center
Thu 12:28:53 AM 27.0061 -82.3581 165° South 103 119 5,000  Level Miami Center
Thu 12:29:54 AM 26.9794 -82.3450 156° South 103 119 5,000  Level Miami Center
Thu 12:30:54 AM 26.9547 -82.3347 160° South 108 124 5,000 51 Level Miami Center
Thu 12:31:52 AM 26.9347 -82.3150 139° Southeast 101 116 5,100  Climbing Miami Center
Thu 12:32:53 AM 26.9211 -82.2864 118° Southeast 96 110 5,000 -50 Descending Miami Center
Thu 12:33:53 AM 26.9031 -82.2625 130° Southeast 101 116 5,000  Level Miami Center
Thu 12:34:52 AM 26.8853 -82.2406 132° Southeast 101 116 5,000  Level Miami Center
Thu 12:35:54 AM 26.8694 -82.2189 129° Southeast 96 110 5,000 50 Level Miami Center
Thu 12:36:52 AM 26.8492 -82.1969 136° Southeast 91 105 5,100 51 Climbing Miami Center
Thu 12:37:51 AM 26.8333 -82.1753 129° Southeast 91 105 5,100 -50 Level Miami Center
Thu 12:38:52 AM 26.8172 -82.1561 133° Southeast 91 105 5,000 -50 Descending Miami Center
Thu 12:39:52 AM 26.7994 -82.1319 129° Southeast 91 105 5,000  Level Miami Center
Thu 12:40:54 AM 26.7814 -82.1078 130° Southeast 96 110 5,000  Level Miami Center
Thu 12:41:52 AM 26.7656 -82.0839 127° Southeast 96 110 5,000 51 Level Miami Center
Thu 12:42:52 AM 26.7497 -82.0622 129° Southeast 91 105 5,100  Climbing Miami Center
Thu 12:43:52 AM 26.7319 -82.0383 130° Southeast 96 110 5,000  Descending Miami Center
Thu 12:44:52 AM 26.7161 -82.0097 122° Southeast 91 105 5,100  Climbing Miami Center
Thu 12:45:54 AM 26.6983 -81.9856 129° Southeast 96 110 5,000 -50 Descending Miami Center
Thu 12:46:52 AM 26.6803 -81.9617 130° Southeast 96 110 5,000  Level Miami Center
Thu 12:47:52 AM 26.6644 -81.9378 127° Southeast 96 110 5,000  Level Miami Center
Thu 12:48:52 AM 26.6486 -81.9114 124° Southeast 96 110 5,000  Level Miami Center
Thu 12:49:54 AM 26.6306 -81.8897 133° Southeast 96 110 5,000  Level Miami Center
Thu 12:50:51 AM 26.6125 -81.8706 136° Southeast 96 110 5,000  Level Miami Center
Thu 12:51:51 AM 26.5925 -81.8464 133° Southeast 96 110 5,000 50 Level Miami Center
Thu 12:52:52 AM 26.5722 -81.8247 136° Southeast 96 110 5,100  Climbing Miami Center
Thu 12:53:53 AM 26.5522 -81.8053 139° Southeast 96 110 5,000 -50 Descending Miami Center
Thu 12:54:51 AM 26.5361 -81.7836 130° Southeast 102 117 5,000  Level Miami Center
Thu 12:55:52 AM 26.5094 -81.7686 153° Southeast 102 117 5,000  Level Miami Center
Thu 12:56:54 AM 26.4842 -81.7744 192° South 97 112 5,000  Level Miami Center
Thu 12:57:54 AM 26.4528 -81.7756 182° South 111 128 5,000 -50 Level Miami Center
Thu 12:58:53 AM 26.4197 -81.7719 174° South 106 122 4,900 -350 Descending Miami Center
Thu 12:59:54 AM 26.3883 -81.7683 174° South 106 122 4,300 -650 Descending Miami Center
Thu 01:00:53 AM 26.3572 -81.7644 174° South 106 122 3,600 -712 Descending Miami Center

Login

Don't have an account? Register now (free) for customized features, flight alerts, and more!